createdAt,value
2023-04-06T00:00:15.685Z,73.18
2023-04-06T00:01:17.285Z,73.33
2023-04-06T00:02:18.862Z,73.83
2023-04-06T00:03:20.740Z,73.62
2023-04-06T00:04:22.489Z,73.48
2023-04-06T00:05:24.200Z,73.09
2023-04-06T00:06:25.830Z,73.36
2023-04-06T00:07:29.185Z,72.08
2023-04-06T00:08:31.087Z,72.94
2023-04-06T00:09:32.644Z,72.82
2023-04-06T00:10:34.469Z,73.27
2023-04-06T00:11:36.044Z,73.33
2023-04-06T00:12:37.558Z,73.11
2023-04-06T00:13:39.211Z,73.25
2023-04-06T00:14:41.730Z,73.38
2023-04-06T00:15:43.394Z,71.96
2023-04-06T00:16:45.035Z,72.56
2023-04-06T00:17:46.776Z,73.19
2023-04-06T00:18:48.406Z,73.08
2023-04-06T00:19:50.010Z,73.05
2023-04-06T00:20:52.142Z,73.08
2023-04-06T00:21:53.830Z,72.47
2023-04-06T00:22:56.154Z,72.48
2023-04-06T00:23:57.844Z,73.36
2023-04-06T00:24:59.389Z,72.78
2023-04-06T00:26:01.225Z,73.37
2023-04-06T00:27:03.085Z,72.09
2023-04-06T00:28:04.811Z,72.76
2023-04-06T00:29:06.985Z,72.58
2023-04-06T00:30:09.678Z,73.22
2023-04-06T00:31:11.298Z,72.38
2023-04-06T00:32:12.881Z,72.60
2023-04-06T00:33:14.530Z,72.55
2023-04-06T00:34:17.010Z,72.67
2023-04-06T00:35:18.728Z,72.68
2023-04-06T00:36:20.611Z,72.87
2023-04-06T00:37:22.170Z,71.92
2023-04-06T00:38:23.809Z,71.98
2023-04-06T00:39:25.458Z,72.22
2023-04-06T00:40:29.421Z,71.78
2023-04-06T00:41:31.323Z,73.06
2023-04-06T00:42:32.919Z,72.41
2023-04-06T00:43:34.583Z,73.20
2023-04-06T00:44:36.109Z,72.25
2023-04-06T00:45:39.719Z,71.60
2023-04-06T00:46:41.429Z,71.44
2023-04-06T00:47:43.217Z,72.70
2023-04-06T00:48:44.768Z,72.86
2023-04-06T00:49:46.385Z,72.30
2023-04-06T00:50:47.914Z,72.19
2023-04-06T00:51:49.545Z,72.45
2023-04-06T00:52:51.597Z,72.79
2023-04-06T00:53:53.283Z,72.25
2023-04-06T00:54:55.061Z,72.69
2023-04-06T00:55:56.610Z,72.22
2023-04-06T00:56:58.679Z,72.32
2023-04-06T00:58:02.180Z,73.02
2023-04-06T00:59:04.038Z,72.67
2023-04-06T01:00:06.259Z,72.28
2023-04-06T01:01:07.813Z,71.55
2023-04-06T01:02:10.212Z,71.85
2023-04-06T01:03:11.770Z,72.16
2023-04-06T01:04:13.349Z,72.16
2023-04-06T01:05:15.163Z,71.04
2023-04-06T01:06:17.333Z,70.94
2023-04-06T01:07:18.891Z,71.60
2023-04-06T01:08:21.066Z,72.21
2023-04-06T01:09:23.468Z,71.47
2023-04-06T01:10:29.468Z,71.42
2023-04-06T01:11:31.034Z,72.17
2023-04-06T01:12:32.655Z,72.09
2023-04-06T01:13:34.180Z,72.10
2023-04-06T01:14:35.916Z,72.34
2023-04-06T01:15:40.067Z,72.12
2023-04-06T01:16:42.565Z,71.37
2023-04-06T01:17:44.316Z,71.18
2023-04-06T01:18:45.947Z,70.79
2023-04-06T01:19:50.243Z,70.68
2023-04-06T01:20:51.806Z,71.91
2023-04-06T01:21:54.356Z,71.50
2023-04-06T01:22:55.935Z,71.33
2023-04-06T01:23:57.473Z,71.58
2023-04-06T01:24:59.073Z,71.76
2023-04-06T01:26:00.814Z,71.98
2023-04-06T01:27:02.634Z,71.76
2023-04-06T01:28:04.429Z,71.12
2023-04-06T01:29:06.225Z,71.31
2023-04-06T01:30:08.901Z,70.83
2023-04-06T01:31:10.825Z,71.01
2023-04-06T01:32:12.430Z,70.69
2023-04-06T01:33:14.099Z,71.50
2023-04-06T01:34:15.890Z,71.40
2023-04-06T01:35:20.046Z,71.46
2023-04-06T01:36:21.844Z,71.46
2023-04-06T01:37:23.398Z,71.90
2023-04-06T01:38:25.036Z,71.38
2023-04-06T01:39:27.082Z,71.38
2023-04-06T01:40:28.745Z,71.55
2023-04-06T01:41:30.409Z,71.24
2023-04-06T01:42:31.952Z,70.87
2023-04-06T01:43:33.526Z,71.26
2023-04-06T01:44:35.362Z,71.62
2023-04-06T01:45:36.943Z,70.78
2023-04-06T01:46:38.510Z,71.11
2023-04-06T01:47:40.213Z,71.81
2023-04-06T01:48:42.007Z,71.06
2023-04-06T01:49:43.537Z,70.88
2023-04-06T01:50:45.115Z,70.65
2023-04-06T01:51:46.646Z,71.45
2023-04-06T01:52:48.161Z,70.93
2023-04-06T01:53:50.297Z,71.13
2023-04-06T01:54:51.964Z,71.38
2023-04-06T01:55:53.537Z,71.42
2023-04-06T01:56:55.168Z,70.81
2023-04-06T01:57:56.840Z,71.20
2023-04-06T01:58:58.460Z,71.52
2023-04-06T02:00:00.348Z,71.58
2023-04-06T02:01:02.027Z,70.57
2023-04-06T02:02:03.734Z,71.25
2023-04-06T02:03:05.329Z,71.99
2023-04-06T02:04:06.878Z,70.40
2023-04-06T02:05:09.302Z,71.50
2023-04-06T02:06:11.107Z,71.41
2023-04-06T02:07:12.725Z,70.50
2023-04-06T02:08:14.244Z,71.47
2023-04-06T02:09:16.725Z,71.23
2023-04-06T02:10:18.534Z,71.27
2023-04-06T02:11:20.153Z,71.51
2023-04-06T02:12:21.729Z,71.34
2023-04-06T02:13:23.299Z,71.33
2023-04-06T02:14:28.059Z,71.67
2023-04-06T02:15:29.611Z,71.38
2023-04-06T02:16:31.598Z,71.53
2023-04-06T02:17:33.357Z,71.47
2023-04-06T02:18:35.049Z,71.31
2023-04-06T02:19:36.748Z,71.86
2023-04-06T02:20:38.377Z,71.80
2023-04-06T02:21:39.913Z,72.28
2023-04-06T02:22:41.687Z,71.62
2023-04-06T02:23:43.247Z,72.18
2023-04-06T02:24:44.856Z,71.78
2023-04-06T02:25:46.472Z,70.90
2023-04-06T02:26:48.025Z,71.87
2023-04-06T02:27:49.544Z,71.82
2023-04-06T02:28:51.196Z,71.93
2023-04-06T02:29:52.766Z,71.59
2023-04-06T02:30:54.288Z,71.23
2023-04-06T02:31:56.057Z,71.47
2023-04-06T02:32:57.648Z,72.00
2023-04-06T02:33:59.487Z,72.37
2023-04-06T02:35:01.472Z,72.04
2023-04-06T02:36:03.131Z,71.20
2023-04-06T02:37:04.685Z,71.42
2023-04-06T02:38:06.478Z,71.48
2023-04-06T02:39:08.240Z,72.06
2023-04-06T02:40:10.618Z,71.82
2023-04-06T02:41:12.132Z,71.99
2023-04-06T02:42:13.741Z,72.35
2023-04-06T02:43:16.447Z,72.44
2023-04-06T02:44:18.009Z,71.61
2023-04-06T02:45:19.619Z,71.60
2023-04-06T02:46:21.322Z,71.92
2023-04-06T02:47:22.940Z,71.63
2023-04-06T02:48:24.751Z,71.52
2023-04-06T02:49:26.303Z,72.02
2023-04-06T02:50:27.885Z,71.60
2023-04-06T02:51:29.517Z,71.69
2023-04-06T02:52:31.090Z,71.21
2023-04-06T02:53:32.670Z,71.73
2023-04-06T02:54:34.261Z,72.70
2023-04-06T02:55:35.963Z,71.92
2023-04-06T02:56:37.562Z,72.58
2023-04-06T02:57:39.257Z,72.44
2023-04-06T02:58:40.929Z,72.72
2023-04-06T02:59:42.558Z,72.95
2023-04-06T03:00:44.375Z,73.23
2023-04-06T03:01:46.003Z,72.86
2023-04-06T03:02:47.634Z,73.29
2023-04-06T03:03:49.359Z,72.96
2023-04-06T03:04:51.157Z,73.09
2023-04-06T03:05:52.836Z,72.84
2023-04-06T03:06:56.312Z,73.13
2023-04-06T03:07:57.884Z,73.51
2023-04-06T03:08:59.437Z,73.09
2023-04-06T03:10:01.135Z,73.62
2023-04-06T03:11:02.746Z,73.85
2023-04-06T03:12:04.454Z,72.75
2023-04-06T03:13:06.325Z,73.03
2023-04-06T03:14:07.953Z,72.45
2023-04-06T03:15:10.143Z,72.28
2023-04-06T03:16:11.900Z,73.22
2023-04-06T03:17:13.516Z,72.88
2023-04-06T03:18:15.137Z,72.45
2023-04-06T03:19:16.756Z,73.59
2023-04-06T03:20:18.428Z,73.44
2023-04-06T03:21:20.569Z,73.26
2023-04-06T03:22:22.112Z,73.42
2023-04-06T03:23:23.965Z,73.49
2023-04-06T03:24:25.577Z,72.48
2023-04-06T03:25:27.173Z,73.13
2023-04-06T03:26:28.722Z,73.34
2023-04-06T03:27:30.296Z,72.66
2023-04-06T03:28:31.915Z,72.38
2023-04-06T03:29:33.469Z,72.80
2023-04-06T03:30:35.757Z,73.02
2023-04-06T03:31:37.413Z,73.35
2023-04-06T03:32:39.058Z,72.44
2023-04-06T03:33:40.668Z,72.71
2023-04-06T03:34:42.215Z,72.86
2023-04-06T03:35:43.839Z,72.27
2023-04-06T03:36:46.277Z,72.21
2023-04-06T03:37:47.865Z,72.53
2023-04-06T03:38:49.470Z,71.99
2023-04-06T03:39:51.601Z,71.92
2023-04-06T03:40:53.169Z,72.58
2023-04-06T03:41:54.825Z,72.66
2023-04-06T03:42:56.362Z,72.31
2023-04-06T03:43:57.936Z,72.38
2023-04-06T03:45:00.032Z,72.75
2023-04-06T03:46:01.713Z,72.50
2023-04-06T03:47:03.505Z,72.94
2023-04-06T03:48:06.341Z,73.29
2023-04-06T03:49:08.342Z,73.10
2023-04-06T03:50:10.454Z,72.30
2023-04-06T03:51:12.009Z,72.38
2023-04-06T03:52:13.624Z,72.46
2023-04-06T03:53:15.179Z,73.03
2023-04-06T03:54:16.818Z,72.76
2023-04-06T03:55:18.630Z,72.14
2023-04-06T03:56:20.973Z,72.81
2023-04-06T03:57:22.599Z,72.59
2023-04-06T03:58:24.175Z,72.00
2023-04-06T03:59:25.890Z,72.49
2023-04-06T04:00:28.040Z,72.39
2023-04-06T04:01:29.943Z,72.84
2023-04-06T04:02:31.597Z,71.88
2023-04-06T04:03:33.292Z,71.23
2023-04-06T04:04:35.010Z,71.51
2023-04-06T04:05:36.867Z,71.58
2023-04-06T04:06:38.393Z,71.80
2023-04-06T04:07:40.042Z,72.05
2023-04-06T04:08:41.585Z,71.48
2023-04-06T04:09:43.123Z,71.42
2023-04-06T04:10:44.679Z,72.31
2023-04-06T04:11:46.348Z,72.59
2023-04-06T04:12:47.966Z,72.25
2023-04-06T04:13:49.569Z,72.10
2023-04-06T04:14:51.110Z,73.16
2023-04-06T04:15:52.687Z,72.79
2023-04-06T04:16:54.268Z,77.47
2023-04-06T04:17:56.235Z,73.34
2023-04-06T04:19:00.428Z,72.74
2023-04-06T04:20:02.238Z,72.61
2023-04-06T04:21:03.877Z,72.20
2023-04-06T04:22:05.997Z,71.83
2023-04-06T04:23:07.651Z,72.96
2023-04-06T04:24:09.157Z,72.29
2023-04-06T04:25:11.404Z,72.01
2023-04-06T04:26:13.111Z,72.37
2023-04-06T04:27:14.685Z,72.69
2023-04-06T04:28:16.540Z,73.49
2023-04-06T04:29:21.015Z,72.98
2023-04-06T04:30:22.630Z,73.16
2023-04-06T04:31:24.523Z,72.58
2023-04-06T04:32:28.381Z,72.74
2023-04-06T04:33:30.111Z,72.74
2023-04-06T04:34:32.157Z,72.63
2023-04-06T04:35:33.722Z,74.00
2023-04-06T04:36:35.314Z,71.49
2023-04-06T04:37:36.953Z,71.79
2023-04-06T04:38:38.482Z,72.41
2023-04-06T04:39:40.510Z,71.66
2023-04-06T04:40:42.044Z,72.07
2023-04-06T04:41:43.570Z,72.17
2023-04-06T04:42:45.939Z,72.00
2023-04-06T04:43:47.563Z,71.87
2023-04-06T04:44:49.196Z,72.27
2023-04-06T04:45:50.786Z,72.23
2023-04-06T04:46:53.050Z,72.52
2023-04-06T04:47:55.113Z,71.86
2023-04-06T04:48:57.003Z,71.78
2023-04-06T04:49:58.571Z,70.93
2023-04-06T04:51:01.190Z,70.92
2023-04-06T04:52:02.775Z,71.16
2023-04-06T04:53:06.955Z,70.96
2023-04-06T04:54:08.538Z,71.15
2023-04-06T04:55:10.116Z,71.45
2023-04-06T04:56:11.781Z,71.54
2023-04-06T04:57:13.612Z,71.55
2023-04-06T04:58:19.946Z,71.24
2023-04-06T04:59:21.553Z,71.62
2023-04-06T05:00:23.266Z,71.20
2023-04-06T05:01:24.866Z,71.01
2023-04-06T05:02:26.709Z,71.36
2023-04-06T05:03:28.943Z,72.30
2023-04-06T05:04:30.642Z,71.30
2023-04-06T05:05:32.166Z,70.93
2023-04-06T05:06:33.727Z,71.95
2023-04-06T05:07:35.348Z,71.05
2023-04-06T05:08:37.002Z,71.95
2023-04-06T05:09:38.590Z,71.77
2023-04-06T05:10:41.222Z,71.79
2023-04-06T05:11:42.872Z,71.83
2023-04-06T05:12:44.529Z,72.47
2023-04-06T05:13:46.253Z,72.21
2023-04-06T05:14:47.993Z,71.68
2023-04-06T05:15:49.815Z,71.72
2023-04-06T05:16:51.420Z,71.94
2023-04-06T05:17:53.197Z,72.79
2023-04-06T05:18:54.800Z,72.28
2023-04-06T05:19:56.614Z,72.89
2023-04-06T05:20:58.264Z,72.08
2023-04-06T05:21:59.806Z,71.51
2023-04-06T05:23:01.734Z,71.33
2023-04-06T05:24:03.619Z,71.54
2023-04-06T05:25:05.555Z,72.33
2023-04-06T05:26:07.225Z,72.23
2023-04-06T05:27:08.823Z,72.62
2023-04-06T05:28:10.487Z,71.67
2023-04-06T05:29:12.056Z,71.77
2023-04-06T05:30:13.931Z,71.34
2023-04-06T05:31:16.198Z,72.09
2023-04-06T05:32:17.906Z,71.75
2023-04-06T05:33:19.646Z,71.44
2023-04-06T05:34:21.299Z,70.73
2023-04-06T05:35:22.947Z,71.32
2023-04-06T05:36:24.665Z,70.45
2023-04-06T05:37:26.410Z,69.99
2023-04-06T05:38:28.238Z,69.75
2023-04-06T05:39:29.766Z,70.05
2023-04-06T05:40:31.300Z,70.02
2023-04-06T05:41:33.155Z,70.47
2023-04-06T05:42:42.221Z,70.84
2023-04-06T05:43:43.750Z,71.46
2023-04-06T05:44:45.344Z,70.12
2023-04-06T05:45:47.058Z,70.00
2023-04-06T05:46:48.714Z,70.44
2023-04-06T05:47:50.329Z,70.08
2023-04-06T05:48:51.902Z,68.60
2023-04-06T05:49:53.446Z,68.78
2023-04-06T05:50:55.777Z,69.06
2023-04-06T05:51:57.360Z,68.71
2023-04-06T05:52:58.879Z,69.15
2023-04-06T05:54:00.586Z,68.51
2023-04-06T05:55:02.169Z,68.52
2023-04-06T05:56:04.540Z,67.99
2023-04-06T05:57:06.175Z,68.81
2023-04-06T05:58:07.727Z,69.57
2023-04-06T05:59:10.001Z,68.67
2023-04-06T06:00:12.489Z,67.65
2023-04-06T06:01:14.125Z,68.63
2023-04-06T06:02:15.870Z,70.82
2023-04-06T06:03:17.504Z,69.35
2023-04-06T06:04:19.101Z,68.94
2023-04-06T06:05:20.880Z,68.48
2023-04-06T06:06:22.597Z,67.95
2023-04-06T06:07:24.867Z,67.10
2023-04-06T06:08:26.447Z,66.83
2023-04-06T06:09:28.066Z,66.10
2023-04-06T06:10:29.675Z,67.27
2023-04-06T06:11:31.476Z,67.89
2023-04-06T06:12:33.095Z,67.50
2023-04-06T06:13:34.608Z,68.03
2023-04-06T06:14:36.616Z,67.89
2023-04-06T06:15:38.167Z,67.84
2023-04-06T06:16:39.780Z,68.50
2023-04-06T06:17:41.419Z,68.30
2023-04-06T06:18:43.127Z,67.50
2023-04-06T06:19:44.648Z,67.12
2023-04-06T06:20:46.867Z,67.00
2023-04-06T06:21:48.472Z,68.04
2023-04-06T06:22:50.013Z,68.07
2023-04-06T06:23:51.614Z,66.51
2023-04-06T06:24:53.161Z,65.53
2023-04-06T06:25:54.820Z,64.99
2023-04-06T06:26:56.408Z,65.49
2023-04-06T06:27:59.497Z,64.07
2023-04-06T06:29:01.019Z,64.19
2023-04-06T06:30:03.523Z,65.66
2023-04-06T06:31:05.171Z,64.55
2023-04-06T06:32:06.942Z,65.56
2023-04-06T06:33:08.641Z,64.87
2023-04-06T06:34:11.344Z,65.42
2023-04-06T06:35:12.906Z,63.96
2023-04-06T06:36:14.599Z,62.76
2023-04-06T06:37:16.177Z,62.50
2023-04-06T06:38:18.225Z,63.20
2023-04-06T06:39:19.808Z,63.41
2023-04-06T06:40:24.812Z,63.63
2023-04-06T06:41:27.197Z,64.42
2023-04-06T06:42:28.846Z,63.32
2023-04-06T06:43:30.674Z,64.66
2023-04-06T06:44:32.347Z,64.70
2023-04-06T06:45:34.352Z,64.51
2023-04-06T06:46:35.963Z,64.04
2023-04-06T06:47:37.677Z,63.51
2023-04-06T06:48:39.315Z,62.67
2023-04-06T06:49:40.870Z,63.22
2023-04-06T06:50:42.515Z,61.99
2023-04-06T06:51:44.185Z,62.96
2023-04-06T06:52:45.758Z,62.59
2023-04-06T06:53:47.292Z,62.49
2023-04-06T06:54:48.934Z,63.79
2023-04-06T06:55:50.713Z,63.10
2023-04-06T06:56:52.217Z,62.58
2023-04-06T06:57:54.453Z,62.18
2023-04-06T06:58:56.101Z,60.36
2023-04-06T06:59:57.685Z,59.97
2023-04-06T07:00:59.883Z,60.75
2023-04-06T07:02:01.662Z,59.01
2023-04-06T07:03:03.379Z,59.36
2023-04-06T07:04:05.611Z,59.55
2023-04-06T07:05:24.287Z,57.33
2023-04-06T07:06:28.892Z,56.68
2023-04-06T07:07:32.723Z,56.16
2023-04-06T07:08:34.278Z,56.54
2023-04-06T07:09:36.770Z,54.99
2023-04-06T07:10:38.276Z,54.72
2023-04-06T07:11:39.850Z,54.67
2023-04-06T07:12:41.390Z,55.66
2023-04-06T07:13:43.766Z,54.38
2023-04-06T07:14:45.345Z,54.07
2023-04-06T07:15:46.957Z,54.32
2023-04-06T07:16:49.894Z,54.41
2023-04-06T07:17:51.715Z,53.80
2023-04-06T07:18:53.258Z,54.07
2023-04-06T07:19:54.886Z,53.90
2023-04-06T07:20:56.688Z,52.75
2023-04-06T07:21:58.398Z,52.63
2023-04-06T07:22:59.973Z,51.48
2023-04-06T07:24:01.598Z,51.99
2023-04-06T07:25:03.250Z,52.30
2023-04-06T07:26:04.924Z,53.45
2023-04-06T07:27:06.973Z,52.20
2023-04-06T07:28:08.666Z,51.98
2023-04-06T07:29:10.262Z,52.06
2023-04-06T07:30:12.307Z,50.80
2023-04-06T07:31:13.881Z,52.64
2023-04-06T07:32:15.889Z,50.83
2023-04-06T07:33:17.554Z,52.24
2023-04-06T07:34:19.170Z,52.83
2023-04-06T07:35:21.076Z,51.79
2023-04-06T07:36:22.677Z,52.61
2023-04-06T07:37:24.420Z,52.53
2023-04-06T07:38:26.330Z,51.01
2023-04-06T07:39:28.140Z,51.38
2023-04-06T07:40:32.834Z,50.19
2023-04-06T07:41:34.600Z,49.32
2023-04-06T07:42:36.221Z,51.46
2023-04-06T07:43:37.850Z,52.36
2023-04-06T07:44:39.473Z,51.55
2023-04-06T07:45:41.253Z,50.92
2023-04-06T07:46:42.897Z,49.87
2023-04-06T07:47:44.682Z,51.11
2023-04-06T07:48:46.474Z,50.89
2023-04-06T07:49:48.068Z,50.67
2023-04-06T07:50:52.645Z,51.81
2023-04-06T07:51:54.682Z,52.81
2023-04-06T07:52:56.340Z,52.51
2023-04-06T07:53:57.960Z,51.56
2023-04-06T07:55:00.198Z,52.83
2023-04-06T07:56:01.812Z,51.35
2023-04-06T07:57:03.439Z,50.63
2023-04-06T07:58:05.045Z,52.26
2023-04-06T07:59:06.688Z,49.84
2023-04-06T08:00:10.689Z,49.65
2023-04-06T08:01:12.282Z,51.54
2023-04-06T08:02:13.901Z,51.20
2023-04-06T08:03:15.616Z,53.19
2023-04-06T08:04:17.483Z,52.87
2023-04-06T08:05:19.206Z,51.38
2023-04-06T08:06:20.868Z,50.42
2023-04-06T08:07:22.438Z,49.96
2023-04-06T08:08:24.091Z,50.33
2023-04-06T08:09:25.807Z,52.49
2023-04-06T08:10:27.368Z,49.71
2023-04-06T08:11:29.100Z,50.38
2023-04-06T08:12:30.928Z,50.62
2023-04-06T08:13:32.510Z,51.45
2023-04-06T08:14:34.096Z,50.78
2023-04-06T08:15:35.901Z,50.75
2023-04-06T08:16:37.547Z,51.23
2023-04-06T08:17:39.195Z,49.65
2023-04-06T08:18:40.906Z,50.81
2023-04-06T08:19:45.137Z,50.67
2023-04-06T08:20:46.771Z,49.43
2023-04-06T08:21:48.426Z,50.06
2023-04-06T08:22:52.263Z,50.23
2023-04-06T08:23:55.138Z,52.11
2023-04-06T08:24:56.754Z,50.19
2023-04-06T08:25:58.363Z,50.21
2023-04-06T08:26:59.995Z,49.18
2023-04-06T08:28:01.609Z,49.94
2023-04-06T08:29:04.970Z,49.66
2023-04-06T08:30:07.138Z,50.08
2023-04-06T08:31:09.089Z,51.05
2023-04-06T08:32:11.779Z,50.56
2023-04-06T08:33:13.385Z,51.65
2023-04-06T08:34:15.372Z,50.42
2023-04-06T08:35:17.651Z,50.35
2023-04-06T08:36:23.685Z,49.01
2023-04-06T08:37:25.803Z,50.30
2023-04-06T08:38:27.333Z,50.36
2023-04-06T08:39:29.310Z,50.52
2023-04-06T08:40:31.159Z,50.14
2023-04-06T08:41:33.454Z,50.15
2023-04-06T08:42:40.688Z,49.42
2023-04-06T08:43:49.428Z,48.66
2023-04-06T08:44:53.518Z,50.68
2023-04-06T08:45:55.352Z,48.98
2023-04-06T08:46:57.894Z,50.63
2023-04-06T08:48:02.815Z,51.15
2023-04-06T08:49:07.552Z,50.34
2023-04-06T08:50:11.559Z,50.06
2023-04-06T08:51:14.002Z,50.05
2023-04-06T08:52:20.016Z,51.02
2023-04-06T08:53:24.043Z,50.15
2023-04-06T08:54:26.244Z,50.21
2023-04-06T08:55:28.333Z,49.65
2023-04-06T08:56:30.112Z,49.90
2023-04-06T08:57:33.237Z,51.15
2023-04-06T08:58:40.867Z,49.76
2023-04-06T08:59:43.300Z,49.56
2023-04-06T09:00:45.226Z,51.03
2023-04-06T09:01:47.401Z,49.83
2023-04-06T09:02:50.898Z,50.53
2023-04-06T09:03:57.227Z,50.63
2023-04-06T09:04:59.891Z,50.49
2023-04-06T09:06:01.966Z,52.54
2023-04-06T09:07:03.532Z,50.32
2023-04-06T09:08:05.386Z,50.73
2023-04-06T09:09:07.564Z,52.60
2023-04-06T09:10:09.738Z,50.16
2023-04-06T09:11:11.928Z,52.30
2023-04-06T09:12:26.617Z,52.44
2023-04-06T09:13:28.198Z,51.28
2023-04-06T09:14:40.419Z,51.47
2023-04-06T09:15:42.071Z,51.21
2023-04-06T09:16:46.283Z,53.08
2023-04-06T09:17:48.120Z,51.78
2023-04-06T09:18:50.402Z,50.23
2023-04-06T09:19:52.814Z,52.76
2023-04-06T09:21:05.714Z,52.10
2023-04-06T09:22:10.779Z,48.47
2023-04-06T09:23:19.675Z,50.66
2023-04-06T09:24:26.414Z,49.81
2023-04-06T09:25:28.076Z,52.01
2023-04-06T09:26:30.063Z,50.08
2023-04-06T09:27:33.472Z,51.24
2023-04-06T09:28:46.645Z,52.01
2023-04-06T09:29:48.242Z,50.43
2023-04-06T09:30:53.103Z,50.51
2023-04-06T09:32:06.594Z,51.26
2023-04-06T09:33:08.358Z,51.04
2023-04-06T09:34:10.199Z,53.18
2023-04-06T09:35:12.236Z,52.00
2023-04-06T09:36:16.518Z,51.55
2023-04-06T09:37:19.468Z,51.64
2023-04-06T09:38:21.093Z,51.53
2023-04-06T09:39:24.309Z,51.08
2023-04-06T09:40:26.193Z,50.90
2023-04-06T09:41:29.062Z,50.95
2023-04-06T09:42:30.821Z,51.41
2023-04-06T09:43:32.424Z,51.88
2023-04-06T09:44:34.033Z,51.48
2023-04-06T09:45:36.042Z,52.94
2023-04-06T09:46:59.630Z,51.18
2023-04-06T09:48:02.398Z,52.59
2023-04-06T09:49:04.846Z,50.83
2023-04-06T09:50:08.377Z,51.64
2023-04-06T09:51:15.394Z,51.54
2023-04-06T09:52:19.026Z,49.19
2023-04-06T09:53:21.357Z,50.12
2023-04-06T09:54:24.397Z,52.25
2023-04-06T09:55:38.606Z,50.83
2023-04-06T09:57:03.601Z,50.19
2023-04-06T09:58:07.662Z,49.48
2023-04-06T09:59:15.668Z,51.45
2023-04-06T10:00:22.079Z,53.70
2023-04-06T10:01:29.207Z,50.84
2023-04-06T10:02:42.384Z,51.48
2023-04-06T10:04:00.372Z,51.29
2023-04-06T10:05:13.896Z,52.16
2023-04-06T10:06:19.980Z,51.77
2023-04-06T10:07:22.083Z,51.17
2023-04-06T10:08:26.467Z,50.54
2023-04-06T10:09:36.492Z,50.67
2023-04-06T10:10:38.936Z,52.53
2023-04-06T10:11:40.762Z,50.94
2023-04-06T10:12:43.181Z,52.49
2023-04-06T10:13:48.187Z,49.88
2023-04-06T10:14:50.378Z,51.18
2023-04-06T10:15:53.368Z,51.62
2023-04-06T10:16:55.274Z,53.79
2023-04-06T10:17:58.645Z,50.54
2023-04-06T10:19:14.224Z,51.58
2023-04-06T10:20:24.722Z,51.48
2023-04-06T10:21:28.585Z,51.97
2023-04-06T10:22:55.219Z,50.19
2023-04-06T10:24:01.856Z,50.71
2023-04-06T10:25:03.918Z,51.40
2023-04-06T10:26:05.644Z,49.55
2023-04-06T10:27:09.518Z,52.45
2023-04-06T10:28:12.472Z,50.15
2023-04-06T10:29:14.057Z,50.91
2023-04-06T10:30:17.074Z,52.48
2023-04-06T10:31:28.973Z,51.73
2023-04-06T10:32:40.118Z,51.78
2023-04-06T10:33:42.295Z,52.38
2023-04-06T10:34:43.860Z,51.38
2023-04-06T10:35:46.158Z,51.20
2023-04-06T10:36:47.849Z,50.50
2023-04-06T10:38:04.663Z,48.86
2023-04-06T10:39:07.490Z,48.89
2023-04-06T10:40:28.820Z,50.47
2023-04-06T10:41:56.441Z,49.41
2023-04-06T10:43:21.893Z,49.46
2023-04-06T10:44:25.185Z,50.40
2023-04-06T10:45:27.490Z,49.37
2023-04-06T10:46:31.537Z,49.41
2023-04-06T10:47:41.155Z,48.52
2023-04-06T10:48:46.638Z,48.73
2023-04-06T10:49:48.242Z,48.83
2023-04-06T10:50:51.674Z,48.87
2023-04-06T10:51:55.610Z,50.21
2023-04-06T10:53:03.984Z,49.89
2023-04-06T10:54:07.414Z,50.92
2023-04-06T10:55:11.485Z,48.00
2023-04-06T10:56:15.607Z,49.49
2023-04-06T10:57:17.125Z,50.22
2023-04-06T10:58:19.304Z,51.13
2023-04-06T10:59:22.573Z,47.41
2023-04-06T11:00:26.126Z,48.23
2023-04-06T11:01:32.575Z,48.57
2023-04-06T11:02:34.450Z,47.60
2023-04-06T11:03:44.357Z,47.34
2023-04-06T11:04:55.265Z,48.26
2023-04-06T11:05:57.009Z,48.77
2023-04-06T11:06:59.023Z,49.31
2023-04-06T11:08:00.582Z,47.07
2023-04-06T11:09:02.252Z,48.26
2023-04-06T11:10:15.526Z,48.73
2023-04-06T11:11:21.276Z,49.69
2023-04-06T11:12:30.084Z,47.60
2023-04-06T11:14:00.747Z,47.72
2023-04-06T11:15:07.611Z,46.54
2023-04-06T11:16:21.955Z,48.15
2023-04-06T11:17:27.519Z,48.80
2023-04-06T11:18:29.128Z,47.83
2023-04-06T11:19:32.793Z,47.93
2023-04-06T11:20:34.620Z,47.90
2023-04-06T11:21:50.427Z,47.12
2023-04-06T11:22:55.107Z,46.89
2023-04-06T11:24:08.881Z,48.06
2023-04-06T11:26:17.186Z,47.17
2023-04-06T11:27:20.370Z,46.29
2023-04-06T11:28:22.207Z,46.11
2023-04-06T11:29:29.013Z,47.09
2023-04-06T11:30:31.374Z,47.55
2023-04-06T11:31:33.072Z,47.36
2023-04-06T11:32:42.459Z,48.20
2023-04-06T11:33:44.048Z,48.18
2023-04-06T11:34:48.301Z,48.30
2023-04-06T11:35:50.096Z,48.45
2023-04-06T11:36:59.962Z,48.42
2023-04-06T11:38:05.092Z,46.30
2023-04-06T11:39:06.653Z,46.88
2023-04-06T11:40:09.451Z,47.19
2023-04-06T11:41:11.437Z,46.27
2023-04-06T11:42:13.039Z,47.02
2023-04-06T11:43:14.584Z,46.76
2023-04-06T11:44:16.458Z,48.07
2023-04-06T11:45:18.040Z,47.93
2023-04-06T11:46:22.432Z,48.05
2023-04-06T11:47:32.032Z,47.62
2023-04-06T11:48:34.503Z,46.41
2023-04-06T11:49:39.540Z,48.49
2023-04-06T11:50:41.388Z,49.18
2023-04-06T11:51:43.019Z,47.05
2023-04-06T11:52:44.751Z,47.54
2023-04-06T11:53:49.262Z,47.50
2023-04-06T11:54:52.389Z,47.55
2023-04-06T11:55:53.951Z,47.72
2023-04-06T11:56:55.980Z,48.00
2023-04-06T11:57:57.562Z,47.01
2023-04-06T11:59:01.012Z,48.32
2023-04-06T12:00:04.156Z,48.68
2023-04-06T12:01:06.052Z,47.33
2023-04-06T12:02:08.101Z,48.05
2023-04-06T12:03:09.830Z,48.22
2023-04-06T12:04:11.505Z,46.82
2023-04-06T12:05:13.133Z,47.17
2023-04-06T12:06:15.603Z,47.78
2023-04-06T12:07:17.208Z,47.57
2023-04-06T12:08:18.779Z,47.88
2023-04-06T12:09:20.725Z,48.64
2023-04-06T12:10:22.266Z,47.86
2023-04-06T12:11:24.209Z,47.59
2023-04-06T12:12:25.898Z,47.96
2023-04-06T12:13:28.459Z,48.97
2023-04-06T12:14:31.762Z,49.32
2023-04-06T12:15:33.435Z,48.42
2023-04-06T12:16:36.068Z,48.93
2023-04-06T12:17:38.020Z,47.56
2023-04-06T12:18:39.723Z,48.46
2023-04-06T12:19:41.599Z,49.27
2023-04-06T12:20:43.124Z,49.96
2023-04-06T12:21:44.712Z,48.37
2023-04-06T12:22:46.435Z,49.04
2023-04-06T12:23:48.127Z,47.17
2023-04-06T12:24:49.762Z,48.20
2023-04-06T12:25:51.568Z,47.57
2023-04-06T12:27:02.654Z,48.56
2023-04-06T12:28:10.639Z,49.76
2023-04-06T12:29:14.145Z,48.24
2023-04-06T12:30:16.084Z,48.92
2023-04-06T12:31:19.049Z,48.84
2023-04-06T12:32:20.669Z,48.84
2023-04-06T12:33:22.517Z,48.50
2023-04-06T12:34:24.189Z,49.39
2023-04-06T12:35:26.134Z,48.11
2023-04-06T12:36:27.773Z,47.14
2023-04-06T12:37:29.313Z,48.93
2023-04-06T12:38:31.313Z,49.20
2023-04-06T12:39:32.933Z,50.44
2023-04-06T12:40:39.165Z,48.70
2023-04-06T12:41:42.170Z,49.35
2023-04-06T12:42:43.787Z,49.46
2023-04-06T12:43:46.014Z,49.28
2023-04-06T12:44:48.191Z,48.39
2023-04-06T12:45:49.737Z,48.86
2023-04-06T12:46:51.473Z,49.17
2023-04-06T12:47:53.127Z,49.67
2023-04-06T12:48:56.008Z,49.36
2023-04-06T12:49:57.662Z,50.46
2023-04-06T12:51:01.476Z,51.57
2023-04-06T12:52:03.952Z,50.79
2023-04-06T12:53:05.638Z,50.36
2023-04-06T12:54:07.580Z,49.84
2023-04-06T12:55:09.718Z,50.48
2023-04-06T12:56:16.606Z,50.34
2023-04-06T12:57:18.387Z,50.82
2023-04-06T12:58:20.442Z,50.23
2023-04-06T12:59:22.079Z,49.58
2023-04-06T13:00:24.211Z,49.56
2023-04-06T13:01:27.651Z,50.49
2023-04-06T13:02:29.401Z,50.64
2023-04-06T13:03:31.672Z,50.46
2023-04-06T13:04:33.586Z,49.96
2023-04-06T13:05:35.371Z,50.13
2023-04-06T13:06:36.998Z,52.04
2023-04-06T13:07:38.565Z,50.91
2023-04-06T13:08:41.111Z,51.52
2023-04-06T13:09:43.047Z,51.68
2023-04-06T13:10:49.151Z,49.83
2023-04-06T13:11:50.708Z,50.84
2023-04-06T13:12:52.324Z,50.56
2023-04-06T13:13:53.891Z,50.58
2023-04-06T13:14:55.668Z,51.93
2023-04-06T13:16:08.669Z,51.19
2023-04-06T13:17:10.819Z,51.26
2023-04-06T13:18:12.642Z,50.98
2023-04-06T13:19:14.257Z,50.23
2023-04-06T13:20:15.818Z,50.38
2023-04-06T13:21:17.798Z,50.97
2023-04-06T13:22:19.431Z,51.00
2023-04-06T13:23:21.251Z,51.16
2023-04-06T13:24:24.135Z,50.65
2023-04-06T13:25:25.717Z,51.92
2023-04-06T13:26:27.404Z,50.04
2023-04-06T13:27:28.976Z,51.48
2023-04-06T13:28:31.485Z,50.76
2023-04-06T13:29:33.074Z,50.97